sensor_id;sensor_type;location;lat;lon;timestamp;P1;durP1;ratioP1;P2;durP2;ratioP2
20754;SDS011;26385;48.470;7.938;2022-08-01T00:01:33;3.35;;;2.95;;
20754;SDS011;26385;48.470;7.938;2022-08-01T00:03:58;4.18;;;2.70;;
20754;SDS011;26385;48.470;7.938;2022-08-01T00:06:24;3.85;;;3.05;;
20754;SDS011;26385;48.470;7.938;2022-08-01T00:08:49;7.03;;;3.40;;
20754;SDS011;26385;48.470;7.938;2022-08-01T00:11:15;3.90;;;3.50;;
20754;SDS011;26385;48.470;7.938;2022-08-01T00:13:40;3.93;;;3.63;;
20754;SDS011;26385;48.470;7.938;2022-08-01T00:16:05;4.20;;;3.20;;
20754;SDS011;26385;48.470;7.938;2022-08-01T00:18:30;3.72;;;3.40;;
20754;SDS011;26385;48.470;7.938;2022-08-01T00:20:56;3.80;;;3.50;;
20754;SDS011;26385;48.470;7.938;2022-08-01T00:23:21;5.68;;;3.60;;
20754;SDS011;26385;48.470;7.938;2022-08-01T00:25:46;3.60;;;3.20;;
20754;SDS011;26385;48.470;7.938;2022-08-01T00:28:11;4.18;;;3.78;;
20754;SDS011;26385;48.470;7.938;2022-08-01T00:30:38;4.85;;;3.58;;
20754;SDS011;26385;48.470;7.938;2022-08-01T00:33:03;4.25;;;3.42;;
20754;SDS011;26385;48.470;7.938;2022-08-01T00:35:29;3.50;;;3.17;;
20754;SDS011;26385;48.470;7.938;2022-08-01T00:37:54;3.53;;;3.22;;
20754;SDS011;26385;48.470;7.938;2022-08-01T00:40:19;6.25;;;3.70;;
20754;SDS011;26385;48.470;7.938;2022-08-01T00:42:45;6.35;;;3.67;;
20754;SDS011;26385;48.470;7.938;2022-08-01T00:45:11;4.72;;;3.40;;
20754;SDS011;26385;48.470;7.938;2022-08-01T00:47:36;4.93;;;3.30;;
20754;SDS011;26385;48.470;7.938;2022-08-01T00:50:05;4.43;;;3.50;;
20754;SDS011;26385;48.470;7.938;2022-08-01T00:52:32;3.85;;;3.35;;
20754;SDS011;26385;48.470;7.938;2022-08-01T00:54:59;3.90;;;3.50;;
20754;SDS011;26385;48.470;7.938;2022-08-01T00:57:24;5.10;;;3.50;;
20754;SDS011;26385;48.470;7.938;2022-08-01T00:59:50;5.43;;;3.47;;
20754;SDS011;26385;48.470;7.938;2022-08-01T01:02:16;4.63;;;3.67;;
20754;SDS011;26385;48.470;7.938;2022-08-01T01:04:43;4.25;;;3.60;;
20754;SDS011;26385;48.470;7.938;2022-08-01T01:07:14;4.47;;;3.63;;
20754;SDS011;26385;48.470;7.938;2022-08-01T01:09:50;4.90;;;3.20;;
20754;SDS011;26385;48.470;7.938;2022-08-01T01:15:20;4.97;;;3.28;;
20754;SDS011;26385;48.470;7.938;2022-08-01T01:17:53;4.20;;;3.40;;
20754;SDS011;26385;48.470;7.938;2022-08-01T01:20:27;6.07;;;3.58;;
20754;SDS011;26385;48.470;7.938;2022-08-01T01:31:00;3.15;;;2.92;;
20754;SDS011;26385;48.470;7.938;2022-08-01T01:33:27;3.40;;;3.10;;
20754;SDS011;26385;48.470;7.938;2022-08-01T01:35:57;3.53;;;2.70;;
20754;SDS011;26385;48.470;7.938;2022-08-01T01:38:29;2.97;;;2.65;;
20754;SDS011;26385;48.470;7.938;2022-08-01T01:40:58;3.17;;;2.83;;
20754;SDS011;26385;48.470;7.938;2022-08-01T01:43:27;4.55;;;3.03;;
20754;SDS011;26385;48.470;7.938;2022-08-01T01:45:54;3.38;;;2.80;;
20754;SDS011;26385;48.470;7.938;2022-08-01T01:48:21;3.30;;;3.00;;
20754;SDS011;26385;48.470;7.938;2022-08-01T01:50:48;3.33;;;3.03;;
20754;SDS011;26385;48.470;7.938;2022-08-01T01:53:17;3.03;;;2.70;;
20754;SDS011;26385;48.470;7.938;2022-08-01T01:55:45;3.00;;;2.70;;
20754;SDS011;26385;48.470;7.938;2022-08-01T01:58:13;2.97;;;2.78;;
20754;SDS011;26385;48.470;7.938;2022-08-01T02:00:40;3.47;;;3.17;;
20754;SDS011;26385;48.470;7.938;2022-08-01T02:03:07;3.67;;;3.00;;
20754;SDS011;26385;48.470;7.938;2022-08-01T02:05:35;3.65;;;3.10;;
20754;SDS011;26385;48.470;7.938;2022-08-01T02:08:02;4.40;;;3.08;;
20754;SDS011;26385;48.470;7.938;2022-08-01T02:10:29;3.13;;;2.90;;
20754;SDS011;26385;48.470;7.938;2022-08-01T02:12:57;3.70;;;2.92;;
20754;SDS011;26385;48.470;7.938;2022-08-01T02:15:26;4.78;;;3.13;;
20754;SDS011;26385;48.470;7.938;2022-08-01T02:17:53;3.50;;;3.20;;
20754;SDS011;26385;48.470;7.938;2022-08-01T02:20:21;3.53;;;3.10;;
20754;SDS011;26385;48.470;7.938;2022-08-01T02:22:47;3.53;;;3.20;;
20754;SDS011;26385;48.470;7.938;2022-08-01T02:27:55;4.50;;;3.10;;
20754;SDS011;26385;48.470;7.938;2022-08-01T02:30:35;3.40;;;3.10;;
20754;SDS011;26385;48.470;7.938;2022-08-01T02:33:12;4.50;;;3.20;;
20754;SDS011;26385;48.470;7.938;2022-08-01T02:35:42;3.33;;;3.03;;
20754;SDS011;26385;48.470;7.938;2022-08-01T02:38:11;3.53;;;3.22;;
20754;SDS011;26385;48.470;7.938;2022-08-01T02:40:40;6.20;;;3.40;;
20754;SDS011;26385;48.470;7.938;2022-08-01T02:43:10;5.20;;;3.42;;
20754;SDS011;26385;48.470;7.938;2022-08-01T02:45:39;5.13;;;3.47;;
20754;SDS011;26385;48.470;7.938;2022-08-01T02:48:11;3.28;;;2.97;;
20754;SDS011;26385;48.470;7.938;2022-08-01T02:50:38;5.65;;;3.53;;
20754;SDS011;26385;48.470;7.938;2022-08-01T02:53:07;4.43;;;3.20;;
20754;SDS011;26385;48.470;7.938;2022-08-01T02:55:36;4.78;;;3.67;;
20754;SDS011;26385;48.470;7.938;2022-08-01T02:58:04;5.45;;;3.33;;
20754;SDS011;26385;48.470;7.938;2022-08-01T03:00:31;3.85;;;3.45;;
20754;SDS011;26385;48.470;7.938;2022-08-01T03:02:58;5.45;;;3.80;;
20754;SDS011;26385;48.470;7.938;2022-08-01T03:05:24;7.25;;;3.53;;
20754;SDS011;26385;48.470;7.938;2022-08-01T03:07:52;3.67;;;3.38;;
20754;SDS011;26385;48.470;7.938;2022-08-01T03:10:20;6.40;;;3.95;;
20754;SDS011;26385;48.470;7.938;2022-08-01T03:12:46;4.55;;;3.45;;
20754;SDS011;26385;48.470;7.938;2022-08-01T03:15:13;6.15;;;3.30;;
20754;SDS011;26385;48.470;7.938;2022-08-01T03:17:41;3.50;;;3.20;;
20754;SDS011;26385;48.470;7.938;2022-08-01T03:20:10;3.28;;;3.03;;
20754;SDS011;26385;48.470;7.938;2022-08-01T03:22:37;5.10;;;3.20;;
20754;SDS011;26385;48.470;7.938;2022-08-01T03:25:04;3.97;;;3.47;;
20754;SDS011;26385;48.470;7.938;2022-08-01T03:27:31;3.67;;;3.22;;
20754;SDS011;26385;48.470;7.938;2022-08-01T03:29:58;3.40;;;3.10;;
20754;SDS011;26385;48.470;7.938;2022-08-01T03:32:27;4.35;;;3.55;;
20754;SDS011;26385;48.470;7.938;2022-08-01T03:34:54;5.63;;;2.78;;
20754;SDS011;26385;48.470;7.938;2022-08-01T03:40:28;3.10;;;2.80;;
20754;SDS011;26385;48.470;7.938;2022-08-01T03:43:02;3.25;;;2.95;;
20754;SDS011;26385;48.470;7.938;2022-08-01T03:45:32;3.50;;;3.20;;
20754;SDS011;26385;48.470;7.938;2022-08-01T03:48:02;3.55;;;3.25;;
20754;SDS011;26385;48.470;7.938;2022-08-01T03:50:34;4.18;;;3.30;;
20754;SDS011;26385;48.470;7.938;2022-08-01T03:53:03;3.42;;;3.13;;
20754;SDS011;26385;48.470;7.938;2022-08-01T03:55:30;4.80;;;3.50;;
20754;SDS011;26385;48.470;7.938;2022-08-01T03:57:58;3.95;;;3.63;;
20754;SDS011;26385;48.470;7.938;2022-08-01T04:00:24;3.65;;;3.30;;
20754;SDS011;26385;48.470;7.938;2022-08-01T04:02:51;3.80;;;3.50;;
20754;SDS011;26385;48.470;7.938;2022-08-01T04:05:17;4.75;;;3.40;;
20754;SDS011;26385;48.470;7.938;2022-08-01T04:07:47;4.53;;;3.35;;
20754;SDS011;26385;48.470;7.938;2022-08-01T04:10:20;4.50;;;4.10;;
20754;SDS011;26385;48.470;7.938;2022-08-01T04:12:45;4.68;;;3.45;;
20754;SDS011;26385;48.470;7.938;2022-08-01T04:15:10;5.50;;;3.85;;
20754;SDS011;26385;48.470;7.938;2022-08-01T04:17:35;5.25;;;3.72;;
20754;SDS011;26385;48.470;7.938;2022-08-01T04:20:01;3.65;;;3.30;;
20754;SDS011;26385;48.470;7.938;2022-08-01T04:22:26;4.50;;;3.33;;
20754;SDS011;26385;48.470;7.938;2022-08-01T04:24:53;3.80;;;3.50;;
20754;SDS011;26385;48.470;7.938;2022-08-01T04:27:22;3.90;;;3.10;;
20754;SDS011;26385;48.470;7.938;2022-08-01T04:29:54;4.53;;;3.60;;
20754;SDS011;26385;48.470;7.938;2022-08-01T04:32:23;4.47;;;3.80;;
20754;SDS011;26385;48.470;7.938;2022-08-01T04:34:51;4.43;;;3.63;;
20754;SDS011;26385;48.470;7.938;2022-08-01T04:37:21;5.15;;;3.88;;
20754;SDS011;26385;48.470;7.938;2022-08-01T04:39:48;4.65;;;3.33;;
20754;SDS011;26385;48.470;7.938;2022-08-01T04:42:16;3.55;;;3.25;;
20754;SDS011;26385;48.470;7.938;2022-08-01T04:44:42;4.78;;;3.50;;
20754;SDS011;26385;48.470;7.938;2022-08-01T04:47:07;3.80;;;3.45;;
20754;SDS011;26385;48.470;7.938;2022-08-01T04:49:34;9.00;;;3.97;;
20754;SDS011;26385;48.470;7.938;2022-08-01T04:52:00;6.57;;;4.82;;
20754;SDS011;26385;48.470;7.938;2022-08-01T04:54:26;13.93;;;8.15;;
20754;SDS011;26385;48.470;7.938;2022-08-01T04:56:52;4.45;;;3.90;;
20754;SDS011;26385;48.470;7.938;2022-08-01T04:59:27;4.70;;;3.47;;
20754;SDS011;26385;48.470;7.938;2022-08-01T05:02:06;5.70;;;3.75;;
20754;SDS011;26385;48.470;7.938;2022-08-01T05:04:42;3.63;;;3.33;;
20754;SDS011;26385;48.470;7.938;2022-08-01T05:07:08;4.18;;;3.20;;
20754;SDS011;26385;48.470;7.938;2022-08-01T05:09:35;4.90;;;3.88;;
20754;SDS011;26385;48.470;7.938;2022-08-01T05:12:02;3.78;;;3.38;;
20754;SDS011;26385;48.470;7.938;2022-08-01T05:14:29;3.60;;;3.30;;
20754;SDS011;26385;48.470;7.938;2022-08-01T05:16:57;4.68;;;3.50;;
20754;SDS011;26385;48.470;7.938;2022-08-01T05:19:27;5.32;;;3.78;;
20754;SDS011;26385;48.470;7.938;2022-08-01T05:21:54;5.22;;;3.55;;
20754;SDS011;26385;48.470;7.938;2022-08-01T05:24:19;9.80;;;3.95;;
20754;SDS011;26385;48.470;7.938;2022-08-01T05:26:44;5.72;;;3.58;;
20754;SDS011;26385;48.470;7.938;2022-08-01T05:29:09;3.70;;;3.40;;
20754;SDS011;26385;48.470;7.938;2022-08-01T05:31:35;4.38;;;3.65;;
20754;SDS011;26385;48.470;7.938;2022-08-01T05:34:01;4.18;;;3.58;;
20754;SDS011;26385;48.470;7.938;2022-08-01T05:36:26;5.90;;;3.55;;
20754;SDS011;26385;48.470;7.938;2022-08-01T05:38:52;5.15;;;4.18;;
20754;SDS011;26385;48.470;7.938;2022-08-01T05:41:17;5.80;;;4.47;;
20754;SDS011;26385;48.470;7.938;2022-08-01T05:43:43;5.18;;;3.63;;
20754;SDS011;26385;48.470;7.938;2022-08-01T05:46:08;3.92;;;3.50;;
20754;SDS011;26385;48.470;7.938;2022-08-01T05:48:33;5.90;;;3.55;;
20754;SDS011;26385;48.470;7.938;2022-08-01T05:50:58;5.75;;;3.70;;
20754;SDS011;26385;48.470;7.938;2022-08-01T05:53:23;5.75;;;3.70;;
20754;SDS011;26385;48.470;7.938;2022-08-01T05:55:49;4.85;;;3.53;;
20754;SDS011;26385;48.470;7.938;2022-08-01T05:58:14;4.72;;;3.55;;
20754;SDS011;26385;48.470;7.938;2022-08-01T06:00:40;7.10;;;3.55;;
20754;SDS011;26385;48.470;7.938;2022-08-01T06:03:05;4.57;;;3.90;;
20754;SDS011;26385;48.470;7.938;2022-08-01T06:05:30;3.47;;;3.17;;
20754;SDS011;26385;48.470;7.938;2022-08-01T06:07:55;13.55;;;5.55;;
20754;SDS011;26385;48.470;7.938;2022-08-01T06:10:21;7.43;;;4.40;;
20754;SDS011;26385;48.470;7.938;2022-08-01T06:12:46;9.18;;;4.70;;
20754;SDS011;26385;48.470;7.938;2022-08-01T06:15:11;5.55;;;3.97;;
20754;SDS011;26385;48.470;7.938;2022-08-01T06:17:38;24.00;;;8.00;;
20754;SDS011;26385;48.470;7.938;2022-08-01T06:20:04;7.45;;;4.97;;
20754;SDS011;26385;48.470;7.938;2022-08-01T06:22:31;9.73;;;5.15;;
20754;SDS011;26385;48.470;7.938;2022-08-01T06:24:56;8.40;;;4.38;;
20754;SDS011;26385;48.470;7.938;2022-08-01T06:27:22;7.00;;;4.20;;
20754;SDS011;26385;48.470;7.938;2022-08-01T06:29:49;4.93;;;3.92;;
20754;SDS011;26385;48.470;7.938;2022-08-01T06:32:18;5.85;;;3.38;;
20754;SDS011;26385;48.470;7.938;2022-08-01T06:34:43;6.68;;;3.60;;
20754;SDS011;26385;48.470;7.938;2022-08-01T06:37:08;5.60;;;3.75;;
20754;SDS011;26385;48.470;7.938;2022-08-01T06:39:33;3.65;;;3.25;;
20754;SDS011;26385;48.470;7.938;2022-08-01T06:41:59;3.90;;;3.53;;
20754;SDS011;26385;48.470;7.938;2022-08-01T06:44:24;6.17;;;3.40;;
20754;SDS011;26385;48.470;7.938;2022-08-01T06:46:49;5.90;;;3.40;;
20754;SDS011;26385;48.470;7.938;2022-08-01T06:49:14;8.30;;;3.50;;
20754;SDS011;26385;48.470;7.938;2022-08-01T06:51:40;5.93;;;3.20;;
20754;SDS011;26385;48.470;7.938;2022-08-01T06:54:05;3.42;;;3.13;;
20754;SDS011;26385;48.470;7.938;2022-08-01T06:56:30;3.45;;;3.15;;
20754;SDS011;26385;48.470;7.938;2022-08-01T06:58:56;4.35;;;3.17;;
20754;SDS011;26385;48.470;7.938;2022-08-01T07:01:25;4.38;;;3.00;;
20754;SDS011;26385;48.470;7.938;2022-08-01T07:03:51;4.18;;;3.50;;
20754;SDS011;26385;48.470;7.938;2022-08-01T07:06:17;3.83;;;2.95;;
20754;SDS011;26385;48.470;7.938;2022-08-01T07:08:42;3.60;;;3.15;;
20754;SDS011;26385;48.470;7.938;2022-08-01T07:11:08;4.53;;;2.85;;
20754;SDS011;26385;48.470;7.938;2022-08-01T07:13:33;3.10;;;2.80;;
20754;SDS011;26385;48.470;7.938;2022-08-01T07:15:58;3.10;;;2.80;;
20754;SDS011;26385;48.470;7.938;2022-08-01T07:18:24;2.83;;;2.63;;
20754;SDS011;26385;48.470;7.938;2022-08-01T07:20:49;6.35;;;2.53;;
20754;SDS011;26385;48.470;7.938;2022-08-01T07:23:15;3.17;;;2.85;;
20754;SDS011;26385;48.470;7.938;2022-08-01T07:25:42;3.30;;;2.80;;
20754;SDS011;26385;48.470;7.938;2022-08-01T07:28:07;5.70;;;2.40;;
20754;SDS011;26385;48.470;7.938;2022-08-01T07:30:32;3.53;;;2.42;;
20754;SDS011;26385;48.470;7.938;2022-08-01T07:32:58;2.47;;;2.20;;
20754;SDS011;26385;48.470;7.938;2022-08-01T07:35:23;3.22;;;2.50;;
20754;SDS011;26385;48.470;7.938;2022-08-01T07:37:48;3.63;;;2.40;;
20754;SDS011;26385;48.470;7.938;2022-08-01T07:40:14;3.63;;;2.65;;
20754;SDS011;26385;48.470;7.938;2022-08-01T07:42:40;4.47;;;2.60;;
20754;SDS011;26385;48.470;7.938;2022-08-01T07:45:10;3.88;;;2.42;;
20754;SDS011;26385;48.470;7.938;2022-08-01T07:47:36;5.25;;;2.40;;
20754;SDS011;26385;48.470;7.938;2022-08-01T07:50:02;5.20;;;2.50;;
20754;SDS011;26385;48.470;7.938;2022-08-01T07:52:29;3.40;;;2.00;;
20754;SDS011;26385;48.470;7.938;2022-08-01T07:54:55;2.30;;;2.10;;
20754;SDS011;26385;48.470;7.938;2022-08-01T07:57:22;2.83;;;2.42;;
20754;SDS011;26385;48.470;7.938;2022-08-01T07:59:48;3.53;;;2.40;;
20754;SDS011;26385;48.470;7.938;2022-08-01T08:02:13;4.00;;;2.30;;
20754;SDS011;26385;48.470;7.938;2022-08-01T08:04:38;3.23;;;2.50;;
20754;SDS011;26385;48.470;7.938;2022-08-01T08:07:04;2.60;;;2.40;;
20754;SDS011;26385;48.470;7.938;2022-08-01T08:09:29;7.13;;;2.40;;
20754;SDS011;26385;48.470;7.938;2022-08-01T08:11:55;3.00;;;2.60;;
20754;SDS011;26385;48.470;7.938;2022-08-01T08:14:20;2.63;;;2.37;;
20754;SDS011;26385;48.470;7.938;2022-08-01T08:16:47;3.30;;;2.45;;
20754;SDS011;26385;48.470;7.938;2022-08-01T08:19:13;3.53;;;2.40;;
20754;SDS011;26385;48.470;7.938;2022-08-01T08:21:38;2.63;;;2.42;;
20754;SDS011;26385;48.470;7.938;2022-08-01T08:24:04;2.50;;;2.30;;
20754;SDS011;26385;48.470;7.938;2022-08-01T08:26:45;2.63;;;2.42;;
20754;SDS011;26385;48.470;7.938;2022-08-01T08:29:15;2.50;;;2.30;;
20754;SDS011;26385;48.470;7.938;2022-08-01T08:31:41;5.03;;;2.65;;
20754;SDS011;26385;48.470;7.938;2022-08-01T08:34:06;3.70;;;2.60;;
20754;SDS011;26385;48.470;7.938;2022-08-01T08:36:32;6.60;;;2.72;;
20754;SDS011;26385;48.470;7.938;2022-08-01T08:38:57;4.13;;;2.50;;
20754;SDS011;26385;48.470;7.938;2022-08-01T08:41:25;2.75;;;2.55;;
20754;SDS011;26385;48.470;7.938;2022-08-01T08:43:50;2.97;;;2.70;;
20754;SDS011;26385;48.470;7.938;2022-08-01T08:46:16;4.38;;;2.60;;
20754;SDS011;26385;48.470;7.938;2022-08-01T08:48:43;3.85;;;2.70;;
20754;SDS011;26385;48.470;7.938;2022-08-01T08:51:10;4.93;;;2.50;;
20754;SDS011;26385;48.470;7.938;2022-08-01T08:53:36;3.10;;;2.80;;
20754;SDS011;26385;48.470;7.938;2022-08-01T08:56:06;4.30;;;3.03;;
20754;SDS011;26385;48.470;7.938;2022-08-01T08:58:32;3.28;;;3.00;;
20754;SDS011;26385;48.470;7.938;2022-08-01T09:01:03;4.25;;;2.92;;
20754;SDS011;26385;48.470;7.938;2022-08-01T09:03:30;3.55;;;2.90;;
20754;SDS011;26385;48.470;7.938;2022-08-01T09:05:55;3.28;;;2.80;;
20754;SDS011;26385;48.470;7.938;2022-08-01T09:08:20;3.17;;;2.73;;
20754;SDS011;26385;48.470;7.938;2022-08-01T09:10:46;3.88;;;3.28;;
20754;SDS011;26385;48.470;7.938;2022-08-01T09:13:13;5.67;;;3.23;;
20754;SDS011;26385;48.470;7.938;2022-08-01T09:15:40;5.80;;;2.72;;
20754;SDS011;26385;48.470;7.938;2022-08-01T09:18:07;6.15;;;3.00;;
20754;SDS011;26385;48.470;7.938;2022-08-01T09:20:32;4.47;;;3.00;;
20754;SDS011;26385;48.470;7.938;2022-08-01T09:23:01;4.53;;;3.10;;
20754;SDS011;26385;48.470;7.938;2022-08-01T09:25:26;9.65;;;4.93;;
20754;SDS011;26385;48.470;7.938;2022-08-01T09:28:05;3.95;;;3.33;;
20754;SDS011;26385;48.470;7.938;2022-08-01T09:30:36;5.53;;;3.45;;
20754;SDS011;26385;48.470;7.938;2022-08-01T09:33:04;3.58;;;3.20;;
20754;SDS011;26385;48.470;7.938;2022-08-01T09:38:11;3.72;;;3.38;;
20754;SDS011;26385;48.470;7.938;2022-08-01T09:40:45;4.10;;;3.25;;
20754;SDS011;26385;48.470;7.938;2022-08-01T09:43:12;5.85;;;4.35;;
20754;SDS011;26385;48.470;7.938;2022-08-01T09:45:38;3.42;;;3.13;;
20754;SDS011;26385;48.470;7.938;2022-08-01T09:48:06;3.87;;;3.57;;
20754;SDS011;26385;48.470;7.938;2022-08-01T09:50:40;4.70;;;3.50;;
20754;SDS011;26385;48.470;7.938;2022-08-01T09:53:09;3.83;;;3.45;;
20754;SDS011;26385;48.470;7.938;2022-08-01T09:55:35;4.07;;;3.22;;
20754;SDS011;26385;48.470;7.938;2022-08-01T09:58:01;3.55;;;3.15;;
20754;SDS011;26385;48.470;7.938;2022-08-01T10:00:26;3.30;;;3.00;;
20754;SDS011;26385;48.470;7.938;2022-08-01T10:02:52;3.47;;;3.28;;
20754;SDS011;26385;48.470;7.938;2022-08-01T10:05:18;3.78;;;3.40;;
20754;SDS011;26385;48.470;7.938;2022-08-01T10:07:56;4.70;;;3.60;;
20754;SDS011;26385;48.470;7.938;2022-08-01T10:10:23;3.40;;;3.10;;
20754;SDS011;26385;48.470;7.938;2022-08-01T10:12:49;3.78;;;2.90;;
20754;SDS011;26385;48.470;7.938;2022-08-01T10:15:16;3.20;;;3.00;;
20754;SDS011;26385;48.470;7.938;2022-08-01T10:17:46;3.50;;;3.13;;
20754;SDS011;26385;48.470;7.938;2022-08-01T10:20:16;3.55;;;3.00;;
20754;SDS011;26385;48.470;7.938;2022-08-01T10:22:42;3.50;;;3.20;;
20754;SDS011;26385;48.470;7.938;2022-08-01T10:25:08;3.63;;;3.33;;
20754;SDS011;26385;48.470;7.938;2022-08-01T10:27:34;3.38;;;3.08;;
20754;SDS011;26385;48.470;7.938;2022-08-01T10:30:03;4.03;;;3.05;;
20754;SDS011;26385;48.470;7.938;2022-08-01T10:32:30;3.70;;;3.40;;
20754;SDS011;26385;48.470;7.938;2022-08-01T10:34:58;3.40;;;3.10;;
20754;SDS011;26385;48.470;7.938;2022-08-01T10:37:24;3.53;;;3.22;;
20754;SDS011;26385;48.470;7.938;2022-08-01T10:39:50;3.75;;;3.45;;
20754;SDS011;26385;48.470;7.938;2022-08-01T10:42:17;4.30;;;3.30;;
20754;SDS011;26385;48.470;7.938;2022-08-01T10:44:43;3.83;;;3.42;;
20754;SDS011;26385;48.470;7.938;2022-08-01T10:47:12;3.50;;;3.20;;
20754;SDS011;26385;48.470;7.938;2022-08-01T10:49:43;3.55;;;3.25;;
20754;SDS011;26385;48.470;7.938;2022-08-01T10:52:15;4.07;;;3.20;;
20754;SDS011;26385;48.470;7.938;2022-08-01T10:54:41;3.30;;;3.10;;
20754;SDS011;26385;48.470;7.938;2022-08-01T10:57:06;3.90;;;3.50;;
20754;SDS011;26385;48.470;7.938;2022-08-01T10:59:32;3.83;;;3.53;;
20754;SDS011;26385;48.470;7.938;2022-08-01T11:01:59;3.30;;;3.00;;
20754;SDS011;26385;48.470;7.938;2022-08-01T11:04:33;3.45;;;3.22;;
20754;SDS011;26385;48.470;7.938;2022-08-01T11:07:20;4.78;;;3.08;;
20754;SDS011;26385;48.470;7.938;2022-08-01T11:09:49;3.42;;;3.13;;
20754;SDS011;26385;48.470;7.938;2022-08-01T11:12:40;3.30;;;3.00;;
20754;SDS011;26385;48.470;7.938;2022-08-01T11:22:30;3.00;;;2.80;;
20754;SDS011;26385;48.470;7.938;2022-08-01T11:24:56;3.00;;;2.80;;
20754;SDS011;26385;48.470;7.938;2022-08-01T11:32:54;6.10;;;3.00;;
20754;SDS011;26385;48.470;7.938;2022-08-01T11:35:23;3.58;;;3.28;;
20754;SDS011;26385;48.470;7.938;2022-08-01T11:37:54;3.17;;;2.97;;
20754;SDS011;26385;48.470;7.938;2022-08-01T11:40:22;3.22;;;2.90;;
20754;SDS011;26385;48.470;7.938;2022-08-01T11:42:50;3.90;;;3.10;;
20754;SDS011;26385;48.470;7.938;2022-08-01T11:45:47;2.92;;;2.72;;
20754;SDS011;26385;48.470;7.938;2022-08-01T11:48:17;4.07;;;2.85;;
20754;SDS011;26385;48.470;7.938;2022-08-01T11:50:44;4.60;;;3.00;;
20754;SDS011;26385;48.470;7.938;2022-08-01T11:53:09;3.63;;;2.85;;
20754;SDS011;26385;48.470;7.938;2022-08-01T11:55:34;3.20;;;2.90;;
20754;SDS011;26385;48.470;7.938;2022-08-01T11:58:06;3.30;;;3.00;;
20754;SDS011;26385;48.470;7.938;2022-08-01T12:00:33;4.50;;;2.88;;
20754;SDS011;26385;48.470;7.938;2022-08-01T12:03:04;3.00;;;2.70;;
20754;SDS011;26385;48.470;7.938;2022-08-01T12:05:31;3.00;;;2.80;;
20754;SDS011;26385;48.470;7.938;2022-08-01T12:07:58;3.38;;;3.10;;
20754;SDS011;26385;48.470;7.938;2022-08-01T12:10:26;3.30;;;3.00;;
20754;SDS011;26385;48.470;7.938;2022-08-01T12:13:00;4.15;;;3.35;;
20754;SDS011;26385;48.470;7.938;2022-08-01T12:15:29;4.10;;;3.17;;
20754;SDS011;26385;48.470;7.938;2022-08-01T12:17:59;6.15;;;3.40;;
20754;SDS011;26385;48.470;7.938;2022-08-01T12:20:27;5.00;;;3.20;;
20754;SDS011;26385;48.470;7.938;2022-08-01T12:22:59;9.93;;;3.92;;
20754;SDS011;26385;48.470;7.938;2022-08-01T12:25:26;10.30;;;3.40;;
20754;SDS011;26385;48.470;7.938;2022-08-01T12:27:51;3.97;;;3.05;;
20754;SDS011;26385;48.470;7.938;2022-08-01T12:30:18;6.40;;;3.17;;
20754;SDS011;26385;48.470;7.938;2022-08-01T12:32:47;8.10;;;3.50;;
20754;SDS011;26385;48.470;7.938;2022-08-01T12:35:14;3.50;;;3.20;;
20754;SDS011;26385;48.470;7.938;2022-08-01T12:37:45;3.20;;;3.00;;
20754;SDS011;26385;48.470;7.938;2022-08-01T12:40:15;4.90;;;3.08;;
20754;SDS011;26385;48.470;7.938;2022-08-01T12:42:43;4.50;;;3.03;;
20754;SDS011;26385;48.470;7.938;2022-08-01T12:45:12;3.45;;;3.15;;
20754;SDS011;26385;48.470;7.938;2022-08-01T12:47:40;3.70;;;3.22;;
20754;SDS011;26385;48.470;7.938;2022-08-01T12:50:07;3.30;;;3.00;;
20754;SDS011;26385;48.470;7.938;2022-08-01T12:52:36;3.28;;;3.00;;
20754;SDS011;26385;48.470;7.938;2022-08-01T12:55:09;4.88;;;2.92;;
20754;SDS011;26385;48.470;7.938;2022-08-01T12:57:37;3.45;;;2.92;;
20754;SDS011;26385;48.470;7.938;2022-08-01T13:00:10;4.93;;;3.58;;
20754;SDS011;26385;48.470;7.938;2022-08-01T13:02:38;5.80;;;3.30;;
20754;SDS011;26385;48.470;7.938;2022-08-01T13:05:04;3.78;;;3.47;;
20754;SDS011;26385;48.470;7.938;2022-08-01T13:07:37;3.42;;;3.13;;
20754;SDS011;26385;48.470;7.938;2022-08-01T13:10:03;3.55;;;3.05;;
20754;SDS011;26385;48.470;7.938;2022-08-01T13:12:29;5.20;;;3.22;;
20754;SDS011;26385;48.470;7.938;2022-08-01T13:14:55;6.97;;;3.00;;
20754;SDS011;26385;48.470;7.938;2022-08-01T13:17:30;4.40;;;2.92;;
20754;SDS011;26385;48.470;7.938;2022-08-01T13:20:02;6.10;;;2.95;;
20754;SDS011;26385;48.470;7.938;2022-08-01T13:22:34;3.00;;;2.80;;
20754;SDS011;26385;48.470;7.938;2022-08-01T13:25:10;4.53;;;2.90;;
20754;SDS011;26385;48.470;7.938;2022-08-01T13:27:36;3.47;;;2.75;;
20754;SDS011;26385;48.470;7.938;2022-08-01T13:30:18;3.50;;;3.20;;
20754;SDS011;26385;48.470;7.938;2022-08-01T13:32:44;3.40;;;3.10;;
20754;SDS011;26385;48.470;7.938;2022-08-01T13:35:25;4.75;;;3.03;;
20754;SDS011;26385;48.470;7.938;2022-08-01T13:37:50;3.42;;;2.90;;
20754;SDS011;26385;48.470;7.938;2022-08-01T13:40:23;3.67;;;2.58;;
20754;SDS011;26385;48.470;7.938;2022-08-01T13:42:50;3.80;;;3.30;;
20754;SDS011;26385;48.470;7.938;2022-08-01T13:45:15;3.37;;;3.07;;
20754;SDS011;26385;48.470;7.938;2022-08-01T13:47:43;4.07;;;3.50;;
20754;SDS011;26385;48.470;7.938;2022-08-01T13:50:09;5.65;;;3.30;;
20754;SDS011;26385;48.470;7.938;2022-08-01T13:52:34;5.43;;;3.00;;
20754;SDS011;26385;48.470;7.938;2022-08-01T13:54:59;3.27;;;3.00;;
20754;SDS011;26385;48.470;7.938;2022-08-01T13:57:25;3.35;;;3.05;;
20754;SDS011;26385;48.470;7.938;2022-08-01T13:59:51;3.33;;;2.70;;
20754;SDS011;26385;48.470;7.938;2022-08-01T14:02:16;2.70;;;2.50;;
20754;SDS011;26385;48.470;7.938;2022-08-01T14:04:41;3.63;;;2.85;;
20754;SDS011;26385;48.470;7.938;2022-08-01T14:07:07;2.70;;;2.50;;
20754;SDS011;26385;48.470;7.938;2022-08-01T14:09:32;2.70;;;2.42;;
20754;SDS011;26385;48.470;7.938;2022-08-01T14:11:58;3.40;;;2.40;;
20754;SDS011;26385;48.470;7.938;2022-08-01T14:14:23;2.65;;;2.40;;
20754;SDS011;26385;48.470;7.938;2022-08-01T14:16:48;2.60;;;2.33;;
20754;SDS011;26385;48.470;7.938;2022-08-01T14:19:14;2.40;;;2.20;;
20754;SDS011;26385;48.470;7.938;2022-08-01T14:21:41;2.92;;;2.17;;
20754;SDS011;26385;48.470;7.938;2022-08-01T14:24:06;2.88;;;2.25;;
20754;SDS011;26385;48.470;7.938;2022-08-01T14:26:32;2.80;;;2.50;;
20754;SDS011;26385;48.470;7.938;2022-08-01T14:28:57;2.90;;;2.70;;
20754;SDS011;26385;48.470;7.938;2022-08-01T14:31:23;2.50;;;2.33;;
20754;SDS011;26385;48.470;7.938;2022-08-01T14:33:48;3.97;;;2.40;;
20754;SDS011;26385;48.470;7.938;2022-08-01T14:36:13;3.10;;;2.40;;
20754;SDS011;26385;48.470;7.938;2022-08-01T14:38:38;5.10;;;3.10;;
20754;SDS011;26385;48.470;7.938;2022-08-01T14:41:04;3.05;;;2.80;;
20754;SDS011;26385;48.470;7.938;2022-08-01T14:43:29;2.80;;;2.47;;
20754;SDS011;26385;48.470;7.938;2022-08-01T14:45:56;1.80;;;1.70;;
20754;SDS011;26385;48.470;7.938;2022-08-01T14:48:21;3.10;;;1.98;;
20754;SDS011;26385;48.470;7.938;2022-08-01T14:50:47;5.88;;;2.08;;
20754;SDS011;26385;48.470;7.938;2022-08-01T14:53:13;5.53;;;2.30;;
20754;SDS011;26385;48.470;7.938;2022-08-01T14:55:38;3.17;;;2.10;;
20754;SDS011;26385;48.470;7.938;2022-08-01T14:58:03;2.13;;;2.00;;
20754;SDS011;26385;48.470;7.938;2022-08-01T15:00:28;3.33;;;2.03;;
20754;SDS011;26385;48.470;7.938;2022-08-01T15:02:54;8.98;;;2.90;;
20754;SDS011;26385;48.470;7.938;2022-08-01T15:05:19;8.32;;;3.08;;
20754;SDS011;26385;48.470;7.938;2022-08-01T15:07:45;12.15;;;3.92;;
20754;SDS011;26385;48.470;7.938;2022-08-01T15:10:10;8.40;;;4.07;;
20754;SDS011;26385;48.470;7.938;2022-08-01T15:12:36;9.30;;;2.75;;
20754;SDS011;26385;48.470;7.938;2022-08-01T15:15:01;2.53;;;2.20;;
20754;SDS011;26385;48.470;7.938;2022-08-01T15:17:27;2.67;;;2.20;;
20754;SDS011;26385;48.470;7.938;2022-08-01T15:19:56;3.78;;;2.10;;
20754;SDS011;26385;48.470;7.938;2022-08-01T15:22:23;4.95;;;2.45;;